Time;durP1;ratioP1;P1;durP2;ratioP2;P2;SDS_P1;SDS_P2;PMS_P1;PMS_P2;Temp;Humidity;BMP_temperature;BMP_pressure;BME280_temperature;BME280_humidity;BME280_pressure;Samples;Min_cycle;Max_cycle;Signal;HPM_P1;HPM_P2
2023/09/16 00:01:28;;;;;;;11.77;10.55;;;15.50;99.90;;;;;;4984411;28;20395;-54
2023/09/16 00:03:54;;;;;;;11.02;9.93;;;15.50;99.90;;;;;;5004178;28;20084;-57
2023/09/16 00:06:20;;;;;;;11.77;10.57;;;15.40;99.90;;;;;;5005645;28;20124;-57
2023/09/16 00:08:46;;;;;;;16.45;10.15;;;15.40;99.90;;;;;;5004265;28;20126;-57
2023/09/16 00:11:12;;;;;;;13.02;11.35;;;15.40;99.90;;;;;;5004759;28;20088;-57
2023/09/16 00:13:38;;;;;;;12.00;10.65;;;15.30;99.90;;;;;;5004451;28;20670;-57
2023/09/16 00:16:04;;;;;;;14.52;11.55;;;15.30;99.90;;;;;;5004872;28;20130;-57
2023/09/16 00:18:30;;;;;;;13.82;11.75;;;15.30;99.90;;;;;;5005664;28;20061;-57
2023/09/16 00:20:56;;;;;;;12.65;11.35;;;15.20;99.90;;;;;;4970633;28;20050;-56
2023/09/16 00:23:22;;;;;;;13.25;11.63;;;15.20;99.90;;;;;;5003742;28;20405;-57
2023/09/16 00:25:48;;;;;;;13.38;11.60;;;15.10;99.90;;;;;;5005231;28;20077;-56
2023/09/16 00:28:14;;;;;;;12.20;11.00;;;15.10;99.90;;;;;;5004887;28;20081;-56
2023/09/16 00:30:44;;;;;;;13.10;11.38;;;15.10;99.90;;;;;;4997874;28;20098;-56
2023/09/16 00:33:10;;;;;;;14.98;11.35;;;15.10;99.90;;;;;;4973040;28;20042;-56
2023/09/16 00:35:36;;;;;;;13.57;11.18;;;15.00;99.90;;;;;;4984533;28;20050;-53
2023/09/16 00:38:01;;;;;;;12.48;11.10;;;15.00;99.90;;;;;;4984146;28;20042;-57
2023/09/16 00:40:27;;;;;;;13.18;11.32;;;15.00;99.90;;;;;;4983662;28;20077;-57
2023/09/16 00:42:53;;;;;;;12.73;11.40;;;15.00;99.90;;;;;;4984624;28;20038;-57
2023/09/16 00:45:18;;;;;;;16.17;11.98;;;15.00;99.90;;;;;;4983990;28;20444;-58
2023/09/16 00:47:44;;;;;;;12.63;11.13;;;14.90;99.90;;;;;;4983791;28;20047;-56
2023/09/16 00:50:12;;;;;;;14.13;11.38;;;14.90;99.90;;;;;;4966760;28;20046;-57
2023/09/16 00:52:44;;;;;;;13.75;12.18;;;14.90;99.90;;;;;;4984383;28;20077;-56
2023/09/16 00:55:10;;;;;;;12.02;10.80;;;14.80;99.90;;;;;;4983016;28;20089;-55
2023/09/16 00:57:39;;;;;;;13.30;11.65;;;14.80;99.90;;;;;;4984009;28;20042;-57
2023/09/16 01:00:07;;;;;;;13.85;12.35;;;14.70;99.90;;;;;;4985004;28;20457;-57
2023/09/16 01:02:35;;;;;;;13.88;12.48;;;14.70;99.90;;;;;;4967204;28;20042;-56
2023/09/16 01:05:03;;;;;;;14.00;12.43;;;14.60;99.90;;;;;;4984429;28;20050;-57
2023/09/16 01:07:29;;;;;;;13.85;12.32;;;14.60;99.90;;;;;;4984475;28;20097;-57
2023/09/16 01:09:55;;;;;;;14.02;11.63;;;14.50;99.90;;;;;;4984054;28;20038;-57
2023/09/16 01:12:21;;;;;;;14.30;12.80;;;14.50;99.90;;;;;;4983049;28;20038;-57
2023/09/16 01:14:47;;;;;;;14.93;12.73;;;14.50;99.90;;;;;;4985101;28;20053;-55
2023/09/16 01:17:25;;;;;;;16.35;13.43;;;14.40;99.90;;;;;;4984337;28;20034;-57
2023/09/16 01:20:12;;;;;;;15.82;13.35;;;14.50;99.90;;;;;;4994431;28;20169;-56
2023/09/16 01:22:44;;;;;;;14.15;12.80;;;14.40;99.90;;;;;;5003713;28;20527;-55
2023/09/16 01:25:10;;;;;;;14.90;13.32;;;14.40;99.90;;;;;;5002074;28;20432;-55
2023/09/16 01:27:37;;;;;;;15.20;13.40;;;14.40;99.90;;;;;;5004571;28;20050;-56
2023/09/16 01:30:05;;;;;;;16.08;13.05;;;14.40;99.90;;;;;;5001613;28;20034;-57
2023/09/16 01:33:00;;;;;;;13.93;12.55;;;14.40;99.90;;;;;;4991778;28;20124;-57
2023/09/16 01:35:32;;;;;;;14.57;12.85;;;14.40;99.90;;;;;;4952627;28;20062;-56
2023/09/16 01:37:59;;;;;;;14.30;12.68;;;14.90;99.90;;;;;;4966119;28;20058;-58
2023/09/16 01:40:27;;;;;;;15.02;12.73;;;14.40;99.90;;;;;;4983007;28;20046;-57
2023/09/16 01:42:54;;;;;;;15.52;14.02;;;14.40;99.90;;;;;;4983905;28;20515;-57
2023/09/16 01:45:20;;;;;;;15.15;13.55;;;14.40;99.90;;;;;;4987699;28;20100;-56
2023/09/16 01:47:48;;;;;;;15.35;13.85;;;14.40;99.90;;;;;;4989964;28;20042;-57
2023/09/16 01:50:13;;;;;;;15.48;13.93;;;14.40;99.90;;;;;;4990104;28;20048;-55
2023/09/16 01:52:39;;;;;;;16.90;14.43;;;14.40;99.90;;;;;;4989744;28;20764;-55
2023/09/16 01:55:05;;;;;;;16.35;14.60;;;14.30;99.90;;;;;;4988646;28;20133;-57
2023/09/16 01:57:30;;;;;;;16.25;14.20;;;14.30;99.90;;;;;;4990258;28;20038;-56
2023/09/16 01:59:56;;;;;;;16.58;14.93;;;14.30;99.90;;;;;;5003170;28;20044;-57
2023/09/16 02:02:22;;;;;;;16.27;14.68;;;14.30;99.90;;;;;;5009600;28;20514;-57
2023/09/16 02:04:47;;;;;;;16.02;14.52;;;14.30;99.90;;;;;;5008781;28;20547;-56
2023/09/16 02:07:13;;;;;;;16.70;15.00;;;14.30;99.90;;;;;;5008803;28;20644;-56
2023/09/16 02:09:39;;;;;;;16.15;14.55;;;14.50;99.90;;;;;;5008066;28;20049;-57
2023/09/16 02:12:05;;;;;;;17.10;15.30;;;14.30;99.90;;;;;;5008163;28;20126;-56
2023/09/16 02:14:37;;;;;;;17.00;15.40;;;14.30;99.90;;;;;;5008549;28;20066;-56
2023/09/16 02:17:03;;;;;;;16.85;14.82;;;14.30;99.90;;;;;;5008575;28;20042;-58
2023/09/16 02:19:29;;;;;;;16.38;14.77;;;14.30;99.90;;;;;;5008997;28;20092;-57
2023/09/16 02:21:54;;;;;;;17.92;16.02;;;14.20;99.90;;;;;;5008736;28;20077;-56
2023/09/16 02:24:20;;;;;;;16.88;15.25;;;14.50;99.90;;;;;;4999413;28;20038;-57
2023/09/16 02:26:45;;;;;;;19.00;16.20;;;14.20;99.90;;;;;;4989032;28;20117;-56
2023/09/16 02:29:11;;;;;;;17.15;15.45;;;14.20;99.90;;;;;;4988217;28;20046;-57
2023/09/16 02:31:37;;;;;;;17.63;15.73;;;14.20;99.90;;;;;;5000368;28;20038;-57
2023/09/16 02:34:02;;;;;;;17.88;15.63;;;14.10;99.90;;;;;;4972217;28;20049;-56
2023/09/16 02:36:28;;;;;;;18.48;15.65;;;14.10;99.90;;;;;;4990443;28;20038;-56
2023/09/16 02:38:53;;;;;;;17.85;16.15;;;14.10;99.90;;;;;;4987214;28;20420;-57
2023/09/16 02:41:19;;;;;;;17.77;15.98;;;14.00;99.90;;;;;;4988839;28;20046;-56
2023/09/16 02:43:46;;;;;;;17.55;15.75;;;14.10;99.90;;;;;;4989385;28;20118;-57
2023/09/16 02:46:12;;;;;;;17.55;15.75;;;14.10;99.90;;;;;;4988364;28;20066;-56
2023/09/16 02:48:38;;;;;;;18.30;15.77;;;14.10;99.90;;;;;;4973181;28;20050;-57
2023/09/16 02:51:04;;;;;;;17.80;15.90;;;14.10;99.90;;;;;;4989080;28;20694;-56
2023/09/16 02:53:30;;;;;;;18.15;16.08;;;14.10;99.90;;;;;;4988916;28;20057;-56
2023/09/16 02:55:55;;;;;;;18.60;16.80;;;14.10;99.90;;;;;;4986240;28;20737;-55
2023/09/16 02:58:22;;;;;;;18.35;16.55;;;14.10;99.90;;;;;;4969091;28;20099;-57
2023/09/16 03:00:48;;;;;;;18.25;16.33;;;14.10;99.90;;;;;;4986551;28;20520;-56
2023/09/16 03:03:14;;;;;;;18.50;16.20;;;14.10;99.90;;;;;;4986989;28;20057;-58
2023/09/16 03:05:45;;;;;;;19.50;16.45;;;14.10;99.90;;;;;;4986964;28;20046;-57
2023/09/16 03:08:12;;;;;;;19.70;17.23;;;14.10;99.90;;;;;;4985737;28;20493;-57
2023/09/16 03:10:37;;;;;;;18.85;16.95;;;14.10;99.90;;;;;;4986562;28;20046;-57
2023/09/16 03:13:03;;;;;;;18.83;16.75;;;14.10;99.90;;;;;;4985370;28;20050;-57
2023/09/16 03:15:29;;;;;;;18.65;16.75;;;14.50;99.90;;;;;;4999046;28;20163;-57
2023/09/16 03:17:54;;;;;;;18.30;16.45;;;14.10;99.90;;;;;;5005676;28;20049;-56
2023/09/16 03:20:21;;;;;;;18.63;16.73;;;14.00;99.90;;;;;;5005618;28;20153;-56
2023/09/16 03:22:46;;;;;;;19.08;17.08;;;14.00;99.90;;;;;;5005121;28;20038;-56
2023/09/16 03:25:12;;;;;;;19.00;17.00;;;14.00;99.90;;;;;;5004718;28;20049;-57
2023/09/16 03:27:38;;;;;;;18.40;16.33;;;14.10;99.90;;;;;;5005973;28;20049;-56
2023/09/16 03:30:04;;;;;;;19.98;17.98;;;14.00;99.90;;;;;;5002392;28;20045;-57
2023/09/16 03:32:30;;;;;;;19.70;17.48;;;14.00;99.90;;;;;;4995276;28;20369;-57
2023/09/16 03:34:56;;;;;;;20.65;18.48;;;14.00;99.90;;;;;;4968706;28;20057;-57
2023/09/16 03:37:22;;;;;;;20.73;18.65;;;14.00;99.90;;;;;;4985855;28;20050;-57
2023/09/16 03:39:47;;;;;;;19.65;17.75;;;13.90;99.90;;;;;;4985052;28;20046;-57
2023/09/16 03:42:13;;;;;;;19.52;17.52;;;14.00;99.90;;;;;;4986835;28;20042;-57
2023/09/16 03:44:38;;;;;;;19.52;17.52;;;14.00;99.90;;;;;;4986376;28;20109;-55
2023/09/16 03:47:06;;;;;;;21.13;18.92;;;14.00;99.90;;;;;;4985238;28;20045;-57
2023/09/16 03:49:32;;;;;;;20.77;18.75;;;14.00;99.90;;;;;;4986704;28;20100;-56
2023/09/16 03:51:57;;;;;;;20.45;18.35;;;13.90;99.90;;;;;;4985945;28;20042;-56
2023/09/16 03:54:23;;;;;;;20.98;18.33;;;14.00;99.90;;;;;;4984755;28;20050;-56
2023/09/16 03:56:48;;;;;;;19.92;17.98;;;13.90;99.90;;;;;;4985300;28;20066;-55
2023/09/16 03:59:14;;;;;;;20.35;18.15;;;13.90;99.90;;;;;;4986250;28;20038;-57
2023/09/16 04:01:40;;;;;;;20.83;18.73;;;13.90;99.90;;;;;;4985181;28;20549;-56
2023/09/16 04:04:06;;;;;;;21.77;19.42;;;13.90;99.90;;;;;;4985168;28;20031;-56
2023/09/16 04:06:31;;;;;;;20.75;18.65;;;13.90;99.90;;;;;;4985174;28;20049;-56
2023/09/16 04:08:57;;;;;;;21.40;19.25;;;13.80;99.90;;;;;;4966877;28;20457;-56
2023/09/16 04:11:23;;;;;;;20.85;18.85;;;13.80;99.90;;;;;;4968017;28;20097;-58
2023/09/16 04:13:48;;;;;;;19.85;17.92;;;13.90;99.90;;;;;;4984430;28;20531;-58
2023/09/16 04:16:14;;;;;;;21.05;18.95;;;13.90;99.90;;;;;;4985802;28;20053;-57
2023/09/16 04:18:40;;;;;;;19.42;17.48;;;14.00;99.90;;;;;;4985165;28;20074;-58
2023/09/16 04:21:06;;;;;;;20.38;18.40;;;13.80;99.90;;;;;;4985467;28;20046;-57
2023/09/16 04:23:34;;;;;;;20.15;18.15;;;13.80;99.90;;;;;;4983257;28;20705;-57
2023/09/16 04:26:01;;;;;;;20.40;18.50;;;13.80;99.90;;;;;;4967195;28;20050;-56
2023/09/16 04:28:27;;;;;;;19.38;17.38;;;13.80;99.90;;;;;;4983337;28;20137;-57
2023/09/16 04:30:53;;;;;;;20.42;18.27;;;13.80;99.90;;;;;;4986494;28;20038;-58
2023/09/16 04:33:19;;;;;;;21.33;19.15;;;13.80;99.90;;;;;;4998533;28;20049;-56
2023/09/16 04:35:46;;;;;;;21.08;18.88;;;13.70;99.90;;;;;;5004731;28;20057;-56
2023/09/16 04:38:16;;;;;;;20.52;18.42;;;13.70;99.90;;;;;;5003737;28;20049;-57
2023/09/16 04:40:43;;;;;;;20.42;18.33;;;13.70;99.90;;;;;;5004275;28;20081;-51
2023/09/16 04:43:09;;;;;;;21.75;19.58;;;13.60;99.90;;;;;;5004039;28;20465;-55
2023/09/16 04:45:36;;;;;;;21.08;18.92;;;13.70;99.90;;;;;;5003469;28;20046;-57
2023/09/16 04:48:04;;;;;;;22.30;20.00;;;13.60;99.90;;;;;;5003072;28;20045;-57
2023/09/16 04:50:31;;;;;;;20.83;18.55;;;13.60;99.90;;;;;;5003968;28;20104;-57
2023/09/16 04:52:58;;;;;;;23.50;21.00;;;13.50;99.90;;;;;;5002872;28;20054;-57
2023/09/16 04:55:24;;;;;;;22.33;20.20;;;13.50;99.90;;;;;;5003308;28;20411;-58
2023/09/16 04:57:49;;;;;;;23.13;20.73;;;13.50;99.90;;;;;;5003239;28;20042;-56
2023/09/16 05:00:17;;;;;;;22.30;20.00;;;13.40;99.90;;;;;;5004925;28;20050;-56
2023/09/16 05:02:47;;;;;;;22.77;20.48;;;13.60;99.90;;;;;;5004024;28;20065;-56
2023/09/16 05:05:14;;;;;;;21.73;19.63;;;13.70;99.90;;;;;;4991477;28;20043;-57
2023/09/16 05:07:39;;;;;;;24.58;21.15;;;13.50;99.90;;;;;;4982589;28;20369;-58
2023/09/16 05:10:05;;;;;;;22.85;20.55;;;13.70;99.90;;;;;;4983716;28;20125;-58
2023/09/16 05:12:31;;;;;;;22.23;19.83;;;13.50;99.90;;;;;;4983425;28;20047;-57
2023/09/16 05:14:56;;;;;;;29.73;20.73;;;13.50;99.90;;;;;;4984410;28;20058;-57
2023/09/16 05:17:22;;;;;;;22.25;20.05;;;13.50;99.90;;;;;;4984191;28;20043;-57
2023/09/16 05:19:47;;;;;;;22.42;20.13;;;13.50;99.90;;;;;;4983921;28;20053;-57
2023/09/16 05:22:13;;;;;;;23.98;20.83;;;13.50;99.90;;;;;;4983979;28;20148;-57
2023/09/16 05:24:39;;;;;;;21.70;19.50;;;13.50;99.90;;;;;;4982931;28;20046;-57
2023/09/16 05:27:04;;;;;;;22.50;20.27;;;13.50;99.90;;;;;;4983545;28;20241;-57
2023/09/16 05:29:30;;;;;;;22.58;19.60;;;13.50;99.90;;;;;;4983573;28;20516;-56
2023/09/16 05:31:59;;;;;;;21.83;19.63;;;13.50;99.90;;;;;;4994580;28;20359;-57
2023/09/16 05:34:25;;;;;;;21.73;19.40;;;13.50;99.90;;;;;;4984173;28;20042;-56
2023/09/16 05:36:50;;;;;;;22.23;20.02;;;13.50;99.90;;;;;;4983886;28;20045;-58
2023/09/16 05:39:16;;;;;;;23.70;20.35;;;13.40;99.90;;;;;;4981657;28;20112;-57
2023/09/16 05:41:43;;;;;;;23.20;20.27;;;13.40;99.90;;;;;;4965821;28;20156;-57
2023/09/16 05:44:08;;;;;;;22.55;20.27;;;13.40;99.90;;;;;;4987224;28;20169;-57
2023/09/16 05:46:34;;;;;;;23.83;21.05;;;13.50;99.90;;;;;;5003324;28;20701;-59
2023/09/16 05:49:09;;;;;;;23.00;20.55;;;13.60;99.90;;;;;;4990036;28;20049;-57
2023/09/16 05:51:36;;;;;;;23.10;20.75;;;13.50;99.90;;;;;;4966026;28;20061;-57
2023/09/16 05:54:02;;;;;;;24.33;21.67;;;13.60;99.90;;;;;;4983271;28;20046;-57
2023/09/16 05:56:27;;;;;;;24.25;21.88;;;13.60;99.90;;;;;;4984177;28;20048;-56
2023/09/16 05:58:53;;;;;;;23.25;21.00;;;13.60;99.90;;;;;;4984490;28;20042;-57
2023/09/16 06:01:19;;;;;;;24.75;22.15;;;13.90;99.90;;;;;;4984370;28;20050;-57
2023/09/16 06:03:45;;;;;;;23.13;20.75;;;13.70;99.90;;;;;;4982841;28;20046;-56
2023/09/16 06:06:11;;;;;;;23.10;20.70;;;13.80;99.90;;;;;;4984187;28;20133;-56
2023/09/16 06:08:37;;;;;;;22.33;20.13;;;13.90;99.90;;;;;;4982910;28;20104;-57
2023/09/16 06:11:02;;;;;;;24.60;22.02;;;13.90;99.90;;;;;;4966659;28;20050;-58
2023/09/16 06:13:28;;;;;;;26.25;20.60;;;13.90;99.90;;;;;;4983340;28;20717;-57
2023/09/16 06:15:54;;;;;;;23.20;20.80;;;14.00;99.90;;;;;;4984033;28;20464;-57
2023/09/16 06:18:20;;;;;;;23.83;21.33;;;14.20;99.90;;;;;;4983826;28;20096;-58
2023/09/16 06:20:46;;;;;;;22.80;20.55;;;14.30;99.90;;;;;;4983411;28;20050;-56
2023/09/16 06:23:11;;;;;;;23.15;20.83;;;14.20;99.90;;;;;;4982655;28;20117;-56
2023/09/16 06:25:38;;;;;;;24.35;21.73;;;14.20;99.90;;;;;;4965734;28;20112;-56
2023/09/16 06:28:04;;;;;;;24.13;21.50;;;14.40;99.90;;;;;;4949218;28;20047;-57
2023/09/16 06:30:30;;;;;;;24.02;21.52;;;14.40;99.90;;;;;;4972835;28;20053;-53
2023/09/16 06:32:57;;;;;;;24.13;20.70;;;14.40;99.90;;;;;;4995251;28;20042;-59
2023/09/16 06:35:23;;;;;;;23.42;21.17;;;14.40;99.90;;;;;;4998578;28;20052;-57
2023/09/16 06:37:52;;;;;;;22.83;20.50;;;14.50;99.90;;;;;;5006496;28;20049;-58
2023/09/16 06:40:18;;;;;;;23.75;21.25;;;14.50;99.90;;;;;;5005564;28;20385;-56
2023/09/16 06:42:44;;;;;;;23.05;20.83;;;14.60;99.90;;;;;;5006508;28;20065;-56
2023/09/16 06:45:11;;;;;;;20.65;18.45;;;15.00;99.90;;;;;;5006443;28;20113;-58
2023/09/16 06:47:36;;;;;;;20.40;18.38;;;15.70;99.90;;;;;;5005372;28;20054;-57
2023/09/16 06:50:02;;;;;;;19.42;17.48;;;16.40;99.90;;;;;;5005002;28;20076;-58
2023/09/16 06:52:28;;;;;;;19.63;17.55;;;17.00;99.90;;;;;;5004709;28;20045;-57
2023/09/16 06:54:54;;;;;;;20.00;18.05;;;17.30;99.90;;;;;;4988032;28;20111;-58
2023/09/16 06:57:20;;;;;;;20.05;18.05;;;17.40;99.90;;;;;;5005491;28;20053;-58
2023/09/16 06:59:47;;;;;;;20.50;18.08;;;17.20;99.90;;;;;;5005885;28;20045;-58
2023/09/16 07:02:13;;;;;;;18.95;17.05;;;17.00;99.90;;;;;;5005350;28;20107;-56
2023/09/16 07:04:40;;;;;;;19.08;17.10;;;16.70;99.90;;;;;;4999627;28;20038;-57
2023/09/16 07:07:06;;;;;;;20.75;18.23;;;16.50;99.90;;;;;;4997100;28;20054;-58
2023/09/16 07:09:32;;;;;;;21.33;19.13;;;16.40;99.90;;;;;;4994876;28;20050;-59
2023/09/16 07:11:57;;;;;;;20.42;17.73;;;16.30;99.90;;;;;;4987395;28;20055;-56
2023/09/16 07:14:23;;;;;;;19.58;17.65;;;16.20;99.90;;;;;;4987987;28;20173;-57
2023/09/16 07:16:49;;;;;;;21.00;18.90;;;16.20;99.90;;;;;;4995382;28;20129;-57
2023/09/16 07:19:15;;;;;;;20.67;18.52;;;16.30;99.90;;;;;;4998151;28;20121;-57
2023/09/16 07:21:40;;;;;;;20.60;18.60;;;16.40;99.90;;;;;;4996329;28;20088;-55
2023/09/16 07:24:06;;;;;;;20.52;18.52;;;16.40;99.90;;;;;;4979307;28;20420;-55
2023/09/16 07:26:32;;;;;;;19.90;18.00;;;16.50;99.90;;;;;;4997229;28;20049;-57
2023/09/16 07:28:58;;;;;;;20.27;18.10;;;16.60;99.90;;;;;;4993581;28;20152;-57
2023/09/16 07:31:24;;;;;;;19.58;17.70;;;16.60;99.90;;;;;;4995590;28;20046;-57
2023/09/16 07:33:49;;;;;;;18.38;16.42;;;16.60;99.90;;;;;;5001487;28;20045;-57
2023/09/16 07:36:15;;;;;;;20.27;18.25;;;16.60;99.90;;;;;;5005751;28;20050;-56
2023/09/16 07:38:41;;;;;;;19.67;17.63;;;16.60;99.90;;;;;;5004994;28;20487;-56
2023/09/16 07:41:06;;;;;;;19.75;17.75;;;16.60;99.90;;;;;;5005354;28;20440;-57
2023/09/16 07:43:32;;;;;;;18.63;16.83;;;16.60;99.90;;;;;;4987007;28;20045;-58
2023/09/16 07:45:59;;;;;;;22.30;17.55;;;16.70;99.90;;;;;;4998643;28;20468;-57
2023/09/16 07:48:24;;;;;;;18.90;17.00;;;16.70;99.90;;;;;;4991172;28;20173;-57
2023/09/16 07:50:50;;;;;;;19.45;17.42;;;16.90;99.90;;;;;;5003731;28;20179;-57
2023/09/16 07:53:16;;;;;;;19.17;17.15;;;17.00;99.90;;;;;;5004134;28;20045;-58
2023/09/16 07:55:42;;;;;;;18.00;16.20;;;17.20;99.90;;;;;;5005757;28;20038;-57
2023/09/16 07:58:07;;;;;;;17.73;15.88;;;17.30;99.90;;;;;;5004454;28;20057;-53
2023/09/16 08:00:33;;;;;;;18.30;15.77;;;17.40;99.90;;;;;;4986856;28;20056;-57
2023/09/16 08:02:59;;;;;;;20.98;17.33;;;17.60;99.90;;;;;;4986449;28;20124;-58
2023/09/16 08:05:26;;;;;;;19.00;16.27;;;17.70;99.90;;;;;;5004988;28;20145;-60
2023/09/16 08:07:52;;;;;;;17.60;15.80;;;17.90;99.90;;;;;;5004063;28;20033;-57
2023/09/16 08:10:18;;;;;;;18.55;16.63;;;18.00;99.90;;;;;;5004150;28;20053;-57
2023/09/16 08:12:44;;;;;;;18.05;16.17;;;18.20;99.90;;;;;;5005004;28;20112;-57
2023/09/16 08:15:09;;;;;;;15.98;14.25;;;18.30;99.90;;;;;;4986542;28;20636;-57
2023/09/16 08:17:37;;;;;;;18.58;15.70;;;18.40;99.90;;;;;;5004284;28;20401;-58
2023/09/16 08:20:05;;;;;;;16.85;15.23;;;18.50;99.90;;;;;;5004139;28;20065;-56
2023/09/16 08:22:31;;;;;;;17.70;15.85;;;18.50;99.90;;;;;;5003234;28;20412;-58
2023/09/16 08:24:56;;;;;;;16.77;14.98;;;18.60;99.90;;;;;;5003705;28;20038;-58
2023/09/16 08:27:22;;;;;;;20.55;15.80;;;18.70;99.90;;;;;;4984955;28;20061;-59
2023/09/16 08:29:49;;;;;;;15.50;13.90;;;18.70;99.90;;;;;;5001419;28;20060;-59
2023/09/16 08:32:15;;;;;;;15.30;13.70;;;18.70;99.90;;;;;;4976414;28;20123;-57
2023/09/16 08:34:41;;;;;;;15.85;14.05;;;18.60;99.90;;;;;;4983703;28;20132;-59
2023/09/16 08:37:07;;;;;;;16.33;14.63;;;18.70;99.90;;;;;;4983670;28;20473;-57
2023/09/16 08:39:32;;;;;;;17.05;15.20;;;18.70;99.90;;;;;;4983570;28;20127;-57
2023/09/16 08:42:11;;;;;;;17.02;15.32;;;18.80;99.90;;;;;;4983563;28;20867;-57
2023/09/16 08:44:42;;;;;;;16.17;14.63;;;18.80;99.90;;;;;;4984151;28;20052;-57
2023/09/16 08:47:19;;;;;;;17.00;15.15;;;18.90;99.90;;;;;;4982706;28;20107;-57
2023/09/16 08:49:50;;;;;;;16.52;14.85;;;18.90;99.90;;;;;;4984518;28;20081;-58
2023/09/16 08:52:18;;;;;;;17.95;15.23;;;18.90;99.90;;;;;;4973424;28;20049;-58
2023/09/16 08:54:48;;;;;;;15.75;14.10;;;19.00;99.90;;;;;;4999594;28;20738;-58
2023/09/16 08:57:15;;;;;;;15.85;14.35;;;19.10;99.90;;;;;;4988275;28;20034;-58
2023/09/16 08:59:41;;;;;;;15.85;14.15;;;19.20;99.90;;;;;;5003027;28;20056;-58
2023/09/16 09:02:09;;;;;;;15.75;14.10;;;19.80;99.90;;;;;;4984275;28;20117;-57
2023/09/16 09:04:36;;;;;;;16.20;13.65;;;20.50;99.90;;;;;;5003540;28;20085;-56
2023/09/16 09:07:02;;;;;;;15.18;13.18;;;21.10;99.90;;;;;;5002926;28;20560;-56
2023/09/16 09:09:29;;;;;;;14.35;12.77;;;21.80;99.90;;;;;;5003076;28;20046;-56
2023/09/16 09:11:57;;;;;;;14.93;13.43;;;22.30;99.90;;;;;;4985329;28;20045;-57
2023/09/16 09:14:23;;;;;;;15.98;12.68;;;22.50;99.90;;;;;;5003291;28;20045;-57
2023/09/16 09:16:50;;;;;;;14.02;12.18;;;22.60;99.90;;;;;;5003846;28;20061;-58
2023/09/16 09:19:16;;;;;;;14.13;12.63;;;22.70;99.90;;;;;;5002917;28;20443;-58
2023/09/16 09:21:43;;;;;;;16.83;12.50;;;22.70;99.90;;;;;;4986263;28;20040;-58
2023/09/16 09:24:09;;;;;;;13.85;12.38;;;22.70;99.90;;;;;;5003225;28;20136;-57
2023/09/16 09:26:34;;;;;;;13.48;11.88;;;23.10;99.90;;;;;;5003336;28;20125;-55
2023/09/16 09:29:00;;;;;;;14.02;12.07;;;23.50;99.90;;;;;;5003908;28;20488;-58
2023/09/16 09:31:26;;;;;;;14.70;12.57;;;23.90;99.90;;;;;;4997127;28;20101;-57
2023/09/16 09:33:53;;;;;;;12.93;11.73;;;24.10;99.90;;;;;;4985214;28;20491;-57
2023/09/16 09:36:19;;;;;;;14.98;11.98;;;24.30;99.90;;;;;;4983587;28;20052;-58
2023/09/16 09:38:45;;;;;;;11.43;10.23;;;24.50;99.90;;;;;;4982665;28;20488;-57
2023/09/16 09:41:12;;;;;;;12.45;11.25;;;24.50;99.90;;;;;;4984078;28;20097;-59
2023/09/16 09:43:38;;;;;;;11.52;10.32;;;24.60;99.50;;;;;;4983405;28;20039;-55
2023/09/16 09:46:04;;;;;;;11.63;10.38;;;24.70;99.20;;;;;;4982409;28;20093;-58
2023/09/16 09:48:31;;;;;;;10.38;9.27;;;24.80;99.00;;;;;;4984161;28;20085;-57
2023/09/16 09:50:57;;;;;;;9.50;7.90;;;25.00;98.30;;;;;;4983723;28;20462;-57
2023/09/16 09:53:24;;;;;;;9.70;8.60;;;25.00;97.60;;;;;;4981196;28;20888;-58
2023/09/16 09:55:50;;;;;;;15.23;10.73;;;25.00;98.10;;;;;;4983796;28;20046;-59
2023/09/16 09:58:18;;;;;;;12.77;9.70;;;25.10;98.00;;;;;;4983625;28;20115;-59
2023/09/16 10:00:48;;;;;;;11.13;9.70;;;24.90;98.00;;;;;;4981907;28;20050;-58
2023/09/16 10:03:16;;;;;;;11.48;9.10;;;24.80;98.20;;;;;;4983374;28;20535;-56
2023/09/16 10:05:42;;;;;;;10.63;8.60;;;24.80;98.30;;;;;;4985259;28;20802;-59
2023/09/16 10:08:07;;;;;;;11.52;9.60;;;24.90;98.10;;;;;;4986258;28;20125;-59
2023/09/16 10:10:34;;;;;;;10.43;9.43;;;25.00;97.40;;;;;;4987398;28;20034;-58
2023/09/16 10:13:00;;;;;;;10.45;8.55;;;24.80;97.50;;;;;;4970445;28;20053;-58
2023/09/16 10:15:35;;;;;;;10.80;9.50;;;24.80;98.10;;;;;;4987770;28;20059;-60
2023/09/16 10:18:02;;;;;;;10.50;9.50;;;24.70;98.30;;;;;;4987295;28;20129;-59
2023/09/16 10:20:30;;;;;;;11.15;10.05;;;24.80;98.30;;;;;;4987366;28;20047;-59
2023/09/16 10:22:57;;;;;;;10.90;9.70;;;24.80;98.20;;;;;;4986635;28;20475;-59
2023/09/16 10:25:23;;;;;;;13.35;9.30;;;25.10;98.20;;;;;;4986836;28;20046;-59
2023/09/16 10:28:04;;;;;;;10.68;9.00;;;25.40;97.90;;;;;;4969514;28;20121;-59
2023/09/16 10:30:31;;;;;;;12.23;8.75;;;25.70;96.50;;;;;;4972604;28;20061;-60
2023/09/16 10:33:00;;;;;;;9.93;8.38;;;25.90;97.30;;;;;;4995549;28;20042;-60
2023/09/16 10:35:28;;;;;;;11.77;8.70;;;26.10;97.00;;;;;;4987433;28;20047;-59
2023/09/16 10:37:56;;;;;;;10.05;8.35;;;26.30;96.60;;;;;;4986804;28;20128;-58
2023/09/16 10:40:24;;;;;;;9.25;7.75;;;26.30;96.40;;;;;;4986583;28;20137;-56
2023/09/16 10:42:51;;;;;;;9.38;8.35;;;26.50;96.30;;;;;;4987232;28;20406;-60
2023/09/16 10:45:21;;;;;;;9.35;8.35;;;26.60;96.10;;;;;;4987580;28;20046;-60
2023/09/16 10:47:49;;;;;;;11.50;8.82;;;26.70;95.90;;;;;;4985839;28;20057;-59
2023/09/16 10:50:15;;;;;;;8.98;8.07;;;26.80;95.90;;;;;;4986759;28;20635;-59
2023/09/16 10:52:49;;;;;;;10.98;9.00;;;26.90;96.10;;;;;;4968924;28;20257;-59
2023/09/16 10:55:14;;;;;;;;;;;27.10;95.80;;;;;;4986788;28;20050;-59
2023/09/16 10:57:49;;;;;;;12.07;9.30;;;27.00;94.70;;;;;;4987069;28;19917;-60
2023/09/16 11:00:19;;;;;;;9.85;8.85;;;26.80;95.70;;;;;;4985680;28;20111;-59
2023/09/16 11:03:07;;;;;;;11.43;9.20;;;26.80;95.90;;;;;;4967540;28;20050;-60
2023/09/16 11:05:35;;;;;;;9.82;8.48;;;26.90;95.10;;;;;;4986360;28;20046;-58
2023/09/16 11:08:01;;;;;;;10.32;9.00;;;26.90;95.50;;;;;;4984899;28;20057;-59
2023/09/16 11:10:27;;;;;;;12.07;8.82;;;27.00;95.70;;;;;;4986874;28;20046;-60
2023/09/16 11:12:55;;;;;;;10.45;8.63;;;26.90;95.60;;;;;;4985743;28;20056;-60
2023/09/16 11:15:21;;;;;;;7.75;6.95;;;27.00;95.70;;;;;;4985767;28;20132;-58
2023/09/16 11:17:47;;;;;;;7.63;6.10;;;27.20;95.30;;;;;;4985413;28;20135;-59
2023/09/16 11:20:28;;;;;;;8.00;6.05;;;27.30;94.50;;;;;;4968944;28;20581;-60
2023/09/16 11:22:54;;;;;;;8.20;6.88;;;27.20;93.10;;;;;;4984998;28;20049;-60
2023/09/16 11:25:19;;;;;;;8.95;8.05;;;27.00;93.90;;;;;;4986745;28;20198;-60
2023/09/16 11:27:46;;;;;;;9.48;8.18;;;26.80;94.30;;;;;;4986268;28;20069;-61
2023/09/16 11:30:13;;;;;;;10.88;8.85;;;26.70;94.50;;;;;;4988299;28;20042;-59
2023/09/16 11:33:00;;;;;;;9.90;8.43;;;26.70;94.40;;;;;;4994248;28;20129;-58
2023/09/16 11:35:29;;;;;;;10.77;9.38;;;26.80;94.50;;;;;;4951450;28;20089;-60
2023/09/16 11:37:56;;;;;;;10.95;9.23;;;26.80;94.70;;;;;;4984924;28;20042;-59
2023/09/16 11:40:31;;;;;;;10.68;9.23;;;26.80;94.90;;;;;;4985791;28;20042;-60
2023/09/16 11:42:56;;;;;;;10.57;9.48;;;27.00;94.50;;;;;;4986204;28;20050;-60
2023/09/16 11:45:23;;;;;;;12.23;9.75;;;27.10;94.70;;;;;;4985669;28;20049;-60
2023/09/16 11:47:49;;;;;;;10.07;9.07;;;27.20;94.60;;;;;;4985801;28;20125;-61
2023/09/16 11:50:22;;;;;;;11.52;10.00;;;27.20;94.40;;;;;;4985654;28;20047;-59
2023/09/16 11:52:48;;;;;;;10.73;9.23;;;27.30;93.90;;;;;;4984531;28;20081;-60
2023/09/16 11:55:15;;;;;;;9.10;7.72;;;27.10;94.30;;;;;;4968558;28;20077;-60
2023/09/16 11:57:41;;;;;;;12.45;7.63;;;27.00;94.30;;;;;;4986234;28;20044;-59
2023/09/16 12:00:10;;;;;;;10.35;7.85;;;27.00;94.20;;;;;;4985560;28;20436;-57
2023/09/16 12:02:36;;;;;;;9.88;7.55;;;27.00;94.00;;;;;;4986354;28;20042;-60
2023/09/16 12:05:03;;;;;;;9.02;8.15;;;27.10;94.10;;;;;;4985892;28;20101;-60
2023/09/16 12:07:34;;;;;;;10.52;8.55;;;27.10;93.90;;;;;;4985048;28;20046;-61
2023/09/16 12:10:01;;;;;;;13.90;8.05;;;27.20;94.10;;;;;;4985765;28;20453;-59
2023/09/16 12:12:27;;;;;;;10.55;7.82;;;27.30;94.20;;;;;;4968165;28;20042;-60
2023/09/16 12:14:53;;;;;;;11.20;8.70;;;27.40;94.20;;;;;;4985400;28;20043;-60
2023/09/16 12:17:19;;;;;;;10.32;8.48;;;27.60;93.90;;;;;;4984613;28;20057;-56
2023/09/16 12:19:52;;;;;;;10.48;8.40;;;27.50;94.20;;;;;;4985278;28;20042;-60
2023/09/16 12:22:18;;;;;;;10.43;7.97;;;27.30;93.30;;;;;;4985423;28;20057;-60
2023/09/16 12:24:45;;;;;;;8.13;6.22;;;27.20;94.10;;;;;;4984261;28;20049;-58
2023/09/16 12:27:11;;;;;;;6.47;4.60;;;27.30;94.20;;;;;;4984848;28;20043;-60
2023/09/16 12:29:37;;;;;;;9.73;4.93;;;27.40;92.90;;;;;;4984997;28;20038;-59